Time;durP1;ratioP1;P1;durP2;ratioP2;P2;SDS_P1;SDS_P2;PMS_P1;PMS_P2;Temp;Humidity;BMP_temperature;BMP_pressure;BME280_temperature;BME280_humidity;BME280_pressure;Samples;Min_cycle;Max_cycle;Signal;HPM_P1;HPM_P2
2023/05/15 00:02:07;;;;;;;12.48;8.07;;;;;;;;;;4962967;28;20043;-81
2023/05/15 00:04:34;;;;;;;13.75;8.95;;;;;;;;;;4984301;28;20053;-80
2023/05/15 00:07:00;;;;;;;14.93;9.55;;;;;;;;;;4956703;28;20067;-80
2023/05/15 00:09:27;;;;;;;18.05;9.13;;;;;;;;;;4988244;28;20478;-80
2023/05/15 00:11:53;;;;;;;15.40;8.75;;;;;;;;;;4987949;28;20042;-79
2023/05/15 00:14:20;;;;;;;13.38;8.00;;;;;;;;;;4957036;28;20138;-79
2023/05/15 00:16:47;;;;;;;17.13;8.43;;;;;;;;;;4973356;28;20054;-80
2023/05/15 00:19:13;;;;;;;15.95;8.15;;;;;;;;;;4971077;28;20061;-80
2023/05/15 00:21:43;;;;;;;19.25;7.90;;;;;;;;;;4971410;28;20047;-81
2023/05/15 00:24:09;;;;;;;15.00;7.93;;;;;;;;;;4988061;28;20047;-79
2023/05/15 00:26:36;;;;;;;15.73;7.88;;;;;;;;;;4972931;28;20415;-79
2023/05/15 00:29:02;;;;;;;20.80;9.27;;;;;;;;;;4984926;28;20047;-80
2023/05/15 00:31:29;;;;;;;14.35;8.35;;;;;;;;;;4952017;28;20047;-81
2023/05/15 00:33:57;;;;;;;14.63;8.63;;;;;;;;;;4951589;28;20053;-79
2023/05/15 00:36:24;;;;;;;12.90;8.35;;;;;;;;;;4937020;29;20479;-79
2023/05/15 00:38:52;;;;;;;18.88;8.23;;;;;;;;;;4954220;29;20043;-78
2023/05/15 00:41:20;;;;;;;15.15;8.23;;;;;;;;;;4935280;28;20070;-78
2023/05/15 00:43:48;;;;;;;14.35;7.78;;;;;;;;;;4966925;28;20051;-78
2023/05/15 00:46:15;;;;;;;13.38;7.93;;;;;;;;;;4951404;28;20051;-79
2023/05/15 00:48:42;;;;;;;16.05;8.07;;;;;;;;;;4953380;28;20051;-78
2023/05/15 00:51:09;;;;;;;13.60;8.10;;;;;;;;;;4951398;28;20047;-79
2023/05/15 00:53:37;;;;;;;13.60;8.13;;;;;;;;;;4948346;28;20053;-80
2023/05/15 00:56:04;;;;;;;12.52;8.07;;;;;;;;;;4964640;28;20289;-80
2023/05/15 00:58:32;;;;;;;11.77;8.38;;;;;;;;;;4964417;28;20059;-79
2023/05/15 01:00:58;;;;;;;14.98;8.43;;;;;;;;;;4954050;28;20053;-79
2023/05/15 01:03:25;;;;;;;11.55;7.38;;;;;;;;;;4978677;28;20361;-81
2023/05/15 01:05:52;;;;;;;10.70;7.50;;;;;;;;;;4954161;28;20047;-81
2023/05/15 01:08:37;;;;;;;11.35;7.22;;;;;;;;;;4969796;28;20523;-79
2023/05/15 01:11:06;;;;;;;13.10;7.03;;;;;;;;;;4969977;28;20117;-81
2023/05/15 01:13:32;;;;;;;10.48;6.70;;;;;;;;;;4940453;28;20071;-80
2023/05/15 01:15:59;;;;;;;9.48;6.57;;;;;;;;;;4950550;28;20051;-81
2023/05/15 01:18:31;;;;;;;10.77;6.85;;;;;;;;;;4934687;29;20106;-80
2023/05/15 01:21:05;;;;;;;10.18;6.90;;;;;;;;;;4950910;29;20055;-80
2023/05/15 01:23:50;;;;;;;10.60;6.85;;;;;;;;;;4950316;28;20051;-80
2023/05/15 01:26:36;;;;;;;11.93;7.43;;;;;;;;;;4965856;28;20630;-80
2023/05/15 01:29:03;;;;;;;11.80;7.95;;;;;;;;;;4930317;28;20130;-80
2023/05/15 01:31:31;;;;;;;12.95;7.35;;;;;;;;;;4953209;28;20043;-79
2023/05/15 01:33:58;;;;;;;12.68;7.80;;;;;;;;;;4954589;29;20492;-78
2023/05/15 01:36:25;;;;;;;14.10;7.72;;;;;;;;;;4954247;28;20047;-80
2023/05/15 01:38:51;;;;;;;15.43;8.00;;;;;;;;;;4955098;28;20110;-80
2023/05/15 01:41:22;;;;;;;19.55;8.73;;;;;;;;;;4953367;28;20051;-80
2023/05/15 01:43:56;;;;;;;12.20;8.20;;;;;;;;;;4957729;28;20044;-80
2023/05/15 01:46:24;;;;;;;12.63;8.40;;;;;;;;;;4954285;28;20051;-80
2023/05/15 01:48:51;;;;;;;13.30;7.63;;;;;;;;;;4954473;28;20047;-79
2023/05/15 01:51:19;;;;;;;12.82;8.40;;;;;;;;;;4970815;28;20101;-80
2023/05/15 01:53:46;;;;;;;17.13;9.40;;;;;;;;;;4939032;28;20051;-80
2023/05/15 01:56:14;;;;;;;12.80;8.40;;;;;;;;;;4971355;28;20110;-77
2023/05/15 01:58:41;;;;;;;11.70;7.50;;;;;;;;;;4956098;28;20070;-80
2023/05/15 02:01:09;;;;;;;12.93;7.68;;;;;;;;;;4939180;28;20047;-80
2023/05/15 02:03:36;;;;;;;13.75;7.30;;;;;;;;;;4962285;28;20122;-79
2023/05/15 02:06:04;;;;;;;12.90;7.65;;;;;;;;;;4971770;28;20078;-79
2023/05/15 02:08:31;;;;;;;12.88;7.03;;;;;;;;;;4953511;28;20111;-79
2023/05/15 02:11:02;;;;;;;14.95;7.90;;;;;;;;;;4969188;28;20051;-79
2023/05/15 02:13:30;;;;;;;13.45;6.80;;;;;;;;;;4970075;28;20162;-79
2023/05/15 02:16:02;;;;;;;9.57;7.10;;;;;;;;;;4962413;28;20047;-79
2023/05/15 02:18:29;;;;;;;12.30;7.13;;;;;;;;;;4955246;28;20043;-80
2023/05/15 02:20:56;;;;;;;11.00;6.90;;;;;;;;;;4954467;28;20055;-79
2023/05/15 02:23:22;;;;;;;12.15;7.28;;;;;;;;;;4938637;28;20043;-79
2023/05/15 02:25:55;;;;;;;13.70;7.38;;;;;;;;;;4970670;28;20094;-78
2023/05/15 02:28:30;;;;;;;12.98;7.72;;;;;;;;;;4954543;28;20043;-79
2023/05/15 02:31:00;;;;;;;13.05;7.75;;;;;;;;;;4970520;28;20049;-80
2023/05/15 02:33:52;;;;;;;11.73;7.53;;;;;;;;;;4952519;28;20478;-78
2023/05/15 02:36:26;;;;;;;15.65;7.63;;;;;;;;;;4949871;28;20043;-79
2023/05/15 02:38:54;;;;;;;14.18;7.63;;;;;;;;;;4954521;28;20046;-79
2023/05/15 02:41:21;;;;;;;13.88;8.15;;;;;;;;;;4952798;28;20118;-79
2023/05/15 02:43:49;;;;;;;14.50;8.40;;;;;;;;;;4953795;28;20043;-78
2023/05/15 02:46:16;;;;;;;14.90;8.63;;;;;;;;;;4955019;28;20047;-79
2023/05/15 02:48:43;;;;;;;13.77;7.43;;;;;;;;;;4938357;28;20063;-79
2023/05/15 02:51:11;;;;;;;14.05;7.85;;;;;;;;;;4955085;28;20047;-80
2023/05/15 02:53:39;;;;;;;11.88;7.82;;;;;;;;;;4954466;29;20051;-80
2023/05/15 02:56:06;;;;;;;12.65;6.78;;;;;;;;;;4955773;29;20051;-78
2023/05/15 02:58:32;;;;;;;8.48;5.80;;;;;;;;;;4939856;28;20035;-79
2023/05/15 03:00:59;;;;;;;10.77;6.28;;;;;;;;;;4955943;28;20047;-79
2023/05/15 03:03:26;;;;;;;7.75;5.20;;;;;;;;;;4965142;28;20062;-79
2023/05/15 03:05:53;;;;;;;7.43;5.18;;;;;;;;;;4973026;28;20054;-79
2023/05/15 03:08:19;;;;;;;7.75;5.25;;;;;;;;;;4973221;28;20043;-79
2023/05/15 03:10:46;;;;;;;6.82;4.82;;;;;;;;;;4974109;28;20097;-78
2023/05/15 03:13:12;;;;;;;11.77;4.88;;;;;;;;;;4972562;28;20454;-81
2023/05/15 03:15:38;;;;;;;6.57;4.55;;;;;;;;;;4973184;28;20065;-81
2023/05/15 03:18:05;;;;;;;6.28;4.70;;;;;;;;;;4956267;28;20134;-80
2023/05/15 03:20:32;;;;;;;7.45;4.97;;;;;;;;;;4956680;28;20106;-80
2023/05/15 03:22:58;;;;;;;6.80;4.53;;;;;;;;;;4988835;28;20086;-79
2023/05/15 03:25:25;;;;;;;10.38;5.63;;;;;;;;;;4956461;28;20055;-81
2023/05/15 03:27:52;;;;;;;10.45;6.88;;;;;;;;;;4988135;28;20047;-80
2023/05/15 03:30:19;;;;;;;10.30;6.13;;;;;;;;;;4972218;28;20046;-78
2023/05/15 03:32:45;;;;;;;11.43;6.38;;;;;;;;;;4967020;28;20051;-79
2023/05/15 03:35:12;;;;;;;11.38;7.65;;;;;;;;;;4963905;28;20070;-80
2023/05/15 03:37:38;;;;;;;11.07;6.88;;;;;;;;;;4947616;28;20047;-80
2023/05/15 03:40:06;;;;;;;8.70;6.05;;;;;;;;;;4952846;28;20051;-79
2023/05/15 03:42:36;;;;;;;9.45;6.60;;;;;;;;;;4952860;28;20048;-77
2023/05/15 03:45:03;;;;;;;9.25;6.50;;;;;;;;;;4937481;28;20047;-81
2023/05/15 03:47:29;;;;;;;11.10;7.45;;;;;;;;;;4953245;28;20067;-78
2023/05/15 03:49:56;;;;;;;15.30;7.47;;;;;;;;;;4959101;28;20071;-78
2023/05/15 03:52:23;;;;;;;10.00;6.45;;;;;;;;;;4965778;28;20050;-78
2023/05/15 03:54:49;;;;;;;11.15;6.65;;;;;;;;;;4934538;29;20044;-80
2023/05/15 03:57:16;;;;;;;10.50;6.82;;;;;;;;;;4963975;28;20047;-80
2023/05/15 03:59:43;;;;;;;12.02;7.10;;;;;;;;;;4968614;28;20543;-79
2023/05/15 04:02:10;;;;;;;10.00;6.68;;;;;;;;;;4965174;28;20051;-79
2023/05/15 04:04:37;;;;;;;12.18;6.82;;;;;;;;;;4968171;28;20549;-77
2023/05/15 04:07:04;;;;;;;9.80;6.38;;;;;;;;;;4964905;28;20150;-79
2023/05/15 04:09:31;;;;;;;10.82;6.50;;;;;;;;;;4951249;28;20047;-79
2023/05/15 04:11:57;;;;;;;11.98;7.10;;;;;;;;;;4949528;28;20040;-78
2023/05/15 04:14:24;;;;;;;12.57;6.78;;;;;;;;;;4953927;28;20491;-81
2023/05/15 04:16:50;;;;;;;10.60;6.53;;;;;;;;;;4969248;28;20043;-80
2023/05/15 04:19:17;;;;;;;12.27;7.50;;;;;;;;;;4967099;28;20059;-78
2023/05/15 04:21:47;;;;;;;14.23;7.97;;;;;;;;;;4950808;28;20051;-81
2023/05/15 04:24:13;;;;;;;14.10;7.18;;;;;;;;;;4955265;28;20071;-83
2023/05/15 04:26:41;;;;;;;11.57;6.65;;;;;;;;;;4951766;28;20053;-82
2023/05/15 04:29:08;;;;;;;15.15;9.30;;;;;;;;;;4959255;28;20127;-81
2023/05/15 04:31:35;;;;;;;18.45;8.93;;;;;;;;;;4972772;28;20542;-81
2023/05/15 04:34:03;;;;;;;11.68;7.55;;;;;;;;;;4953710;28;20051;-82
2023/05/15 04:36:30;;;;;;;12.10;8.23;;;;;;;;;;4950403;28;20046;-81
2023/05/15 04:38:57;;;;;;;12.38;8.32;;;;;;;;;;4951518;28;20054;-82
2023/05/15 04:41:23;;;;;;;17.00;9.52;;;;;;;;;;4950591;28;20039;-83
2023/05/15 04:43:50;;;;;;;13.50;8.82;;;;;;;;;;4969083;28;20127;-81
2023/05/15 04:46:17;;;;;;;17.60;9.73;;;;;;;;;;4936679;29;20098;-82
2023/05/15 04:48:43;;;;;;;21.52;11.25;;;;;;;;;;4952219;28;20085;-80
2023/05/15 04:51:10;;;;;;;23.92;10.98;;;;;;;;;;4952045;28;20043;-79
2023/05/15 04:53:37;;;;;;;20.15;10.52;;;;;;;;;;4972747;28;20045;-81
2023/05/15 04:56:04;;;;;;;23.48;12.00;;;;;;;;;;4959169;28;20043;-78
2023/05/15 04:58:30;;;;;;;20.70;13.13;;;;;;;;;;4952195;28;20059;-82
2023/05/15 05:00:57;;;;;;;28.05;16.52;;;;;;;;;;4957930;28;20055;-82
2023/05/15 05:03:26;;;;;;;26.45;15.18;;;;;;;;;;4973123;28;20619;-81
2023/05/15 05:05:52;;;;;;;27.63;15.15;;;;;;;;;;4973462;28;20142;-81
2023/05/15 05:08:19;;;;;;;33.25;18.58;;;;;;;;;;4964855;28;20073;-82
2023/05/15 05:10:46;;;;;;;40.50;19.58;;;;;;;;;;4962997;28;20047;-82
2023/05/15 05:13:12;;;;;;;34.63;19.73;;;;;;;;;;4965676;28;20071;-81
2023/05/15 05:15:39;;;;;;;42.42;23.50;;;;;;;;;;4952721;28;20039;-84
2023/05/15 05:18:05;;;;;;;43.15;22.92;;;;;;;;;;4939822;28;20090;-78
2023/05/15 05:20:32;;;;;;;35.42;20.85;;;;;;;;;;4962282;28;20051;-81
2023/05/15 05:22:58;;;;;;;38.72;23.13;;;;;;;;;;4961728;28;20061;-81
2023/05/15 05:25:25;;;;;;;37.65;21.83;;;;;;;;;;4967542;28;20130;-82
2023/05/15 05:27:52;;;;;;;35.65;21.17;;;;;;;;;;4954322;28;20555;-81
2023/05/15 05:30:19;;;;;;;32.90;19.23;;;;;;;;;;4933818;28;20078;-80
2023/05/15 05:32:46;;;;;;;36.47;20.13;;;;;;;;;;4950594;28;20051;-81
2023/05/15 05:35:12;;;;;;;30.80;18.90;;;;;;;;;;4949978;28;20047;-82
2023/05/15 05:37:39;;;;;;;35.53;21.63;;;;;;;;;;4933439;28;20150;-81
2023/05/15 05:40:07;;;;;;;34.53;19.98;;;;;;;;;;4964654;28;20099;-82
2023/05/15 05:42:34;;;;;;;34.22;19.88;;;;;;;;;;4952991;28;20058;-81
2023/05/15 05:45:01;;;;;;;35.80;19.98;;;;;;;;;;4952011;28;20051;-80
2023/05/15 05:47:29;;;;;;;28.38;18.65;;;;;;;;;;4949085;28;20130;-81
2023/05/15 05:49:56;;;;;;;28.05;18.70;;;;;;;;;;4963853;28;20055;-81
2023/05/15 05:52:23;;;;;;;31.25;19.00;;;;;;;;;;4952370;28;20047;-83
2023/05/15 05:54:49;;;;;;;27.75;18.15;;;;;;;;;;4952424;28;20492;-81
2023/05/15 05:57:16;;;;;;;27.25;16.92;;;;;;;;;;4949666;28;20103;-80
2023/05/15 05:59:42;;;;;;;27.20;16.90;;;;;;;;;;4936858;28;20134;-81
2023/05/15 06:02:10;;;;;;;27.85;16.17;;;;;;;;;;4952125;28;20048;-80
2023/05/15 06:04:36;;;;;;;25.52;16.52;;;;;;;;;;4946696;28;20062;-83
2023/05/15 06:07:03;;;;;;;30.95;16.58;;;;;;;;;;4972780;28;20061;-83
2023/05/15 06:09:30;;;;;;;22.40;15.25;;;;;;;;;;4957248;28;20045;-83
2023/05/15 06:11:56;;;;;;;25.05;15.52;;;;;;;;;;4972865;28;20150;-83
2023/05/15 06:14:23;;;;;;;23.45;15.02;;;;;;;;;;4976381;28;20038;-82
2023/05/15 06:16:49;;;;;;;26.83;15.35;;;;;;;;;;4971337;28;20114;-82
2023/05/15 06:19:16;;;;;;;23.67;13.45;;;;;;;;;;4975748;28;20169;-82
2023/05/15 06:21:43;;;;;;;24.15;14.82;;;;;;;;;;4955928;28;20043;-82
2023/05/15 06:24:09;;;;;;;26.23;15.05;;;;;;;;;;4973049;28;20577;-81
2023/05/15 06:26:36;;;;;;;23.23;14.95;;;;;;;;;;4972714;28;20402;-81
2023/05/15 06:29:02;;;;;;;21.38;14.52;;;;;;;;;;4986751;28;20045;-80
2023/05/15 06:31:29;;;;;;;24.25;15.02;;;;;;;;;;4936652;29;20047;-82
2023/05/15 06:33:55;;;;;;;20.75;14.63;;;;;;;;;;4935567;28;20551;-81
2023/05/15 06:36:22;;;;;;;24.63;14.98;;;;;;;;;;4968833;28;20109;-81
2023/05/15 06:38:49;;;;;;;22.63;15.10;;;;;;;;;;4969178;28;20043;-81
2023/05/15 06:41:15;;;;;;;22.60;14.55;;;;;;;;;;4954882;28;20116;-81
2023/05/15 06:43:42;;;;;;;21.33;14.82;;;;;;;;;;4959150;28;20047;-82
2023/05/15 06:46:09;;;;;;;20.98;14.90;;;;;;;;;;4954789;28;20174;-78
2023/05/15 06:48:36;;;;;;;22.15;14.55;;;;;;;;;;4935042;28;20663;-79
2023/05/15 06:51:02;;;;;;;20.25;13.80;;;;;;;;;;4953956;28;20054;-79
2023/05/15 06:53:29;;;;;;;19.20;13.48;;;;;;;;;;4958451;28;20069;-82
2023/05/15 06:55:56;;;;;;;21.92;13.60;;;;;;;;;;4976339;28;20055;-83
2023/05/15 06:58:22;;;;;;;21.80;13.80;;;;;;;;;;4942332;28;20055;-80
2023/05/15 07:00:49;;;;;;;22.15;13.65;;;;;;;;;;4959185;28;20051;-83
2023/05/15 07:03:16;;;;;;;18.92;12.40;;;;;;;;;;4984101;28;20554;-81
2023/05/15 07:05:43;;;;;;;21.38;12.77;;;;;;;;;;4992872;28;20538;-82
2023/05/15 07:08:10;;;;;;;27.05;13.10;;;;;;;;;;4977707;28;20268;-81
2023/05/15 07:10:36;;;;;;;21.75;13.00;;;;;;;;;;4991459;28;20045;-81
2023/05/15 07:13:06;;;;;;;16.52;12.20;;;;;;;;;;4976172;28;20051;-83
2023/05/15 07:15:32;;;;;;;18.77;11.27;;;;;;;;;;4983264;28;20174;-83
2023/05/15 07:17:59;;;;;;;16.48;11.57;;;;;;;;;;4955611;28;20062;-82
2023/05/15 07:20:26;;;;;;;14.40;10.95;;;;;;;;;;4954828;28;20040;-83
2023/05/15 07:22:57;;;;;;;16.52;11.18;;;;;;;;;;4949168;28;20350;-82
2023/05/15 07:25:24;;;;;;;17.92;11.00;;;;;;;;;;4971682;28;20055;-82
2023/05/15 07:27:51;;;;;;;18.73;12.07;;;;;;;;;;4939329;28;20083;-83
2023/05/15 07:30:18;;;;;;;19.23;11.05;;;;;;;;;;4954058;28;20058;-82
2023/05/15 07:32:45;;;;;;;16.25;11.55;;;;;;;;;;4986680;28;20516;-82
2023/05/15 07:35:11;;;;;;;16.30;10.90;;;;;;;;;;4951155;28;20110;-81
2023/05/15 07:37:38;;;;;;;16.73;11.63;;;;;;;;;;4952159;28;20094;-80
2023/05/15 07:40:05;;;;;;;17.65;11.77;;;;;;;;;;4935583;29;20055;-80
2023/05/15 07:42:32;;;;;;;23.58;12.40;;;;;;;;;;4984618;28;20043;-82
2023/05/15 07:44:58;;;;;;;19.05;12.02;;;;;;;;;;4968573;28;20043;-83
2023/05/15 07:47:25;;;;;;;15.90;11.10;;;;;;;;;;4951506;28;20050;-80
2023/05/15 07:49:52;;;;;;;20.35;11.25;;;;;;;;;;4969913;28;20043;-84
2023/05/15 07:52:18;;;;;;;14.95;10.90;;;;;;;;;;4990382;28;20116;-81
2023/05/15 07:54:45;;;;;;;14.30;10.30;;;;;;;;;;4950976;28;20353;-82
2023/05/15 07:57:12;;;;;;;13.73;10.30;;;;;;;;;;4953913;28;20063;-83
2023/05/15 07:59:39;;;;;;;14.65;10.93;;;;;;;;;;4952776;28;20127;-81
2023/05/15 08:02:06;;;;;;;15.00;10.15;;;;;;;;;;4959652;28;20035;-80
2023/05/15 08:04:33;;;;;;;15.60;10.30;;;;;;;;;;4985976;28;20049;-82
2023/05/15 08:06:59;;;;;;;14.57;10.40;;;;;;;;;;4974087;28;20424;-81
2023/05/15 08:09:26;;;;;;;15.80;11.55;;;;;;;;;;4990274;28;20533;-83
2023/05/15 08:12:13;;;;;;;16.98;11.18;;;;;;;;;;4989626;28;20034;-84
2023/05/15 08:14:39;;;;;;;22.75;11.10;;;;;;;;;;4993905;28;20038;-82
2023/05/15 08:17:06;;;;;;;15.95;11.00;;;;;;;;;;4979382;28;20102;-84
2023/05/15 08:19:32;;;;;;;15.98;10.57;;;;;;;;;;4986211;28;20069;-82
2023/05/15 08:21:59;;;;;;;18.95;12.27;;;;;;;;;;4975853;28;20030;-83
2023/05/15 08:24:26;;;;;;;14.25;9.80;;;;;;;;;;4984700;28;20043;-81
2023/05/15 08:26:52;;;;;;;13.32;10.10;;;;;;;;;;4997907;28;20058;-82
2023/05/15 08:29:19;;;;;;;19.75;9.73;;;;;;;;;;4972511;28;20071;-82
2023/05/15 08:31:46;;;;;;;18.67;10.80;;;;;;;;;;4956237;28;20055;-82
2023/05/15 08:34:13;;;;;;;15.70;9.93;;;;;;;;;;4970508;28;20047;-81
2023/05/15 08:36:39;;;;;;;14.43;9.02;;;;;;;;;;4950632;29;20051;-83
2023/05/15 08:39:08;;;;;;;12.85;9.10;;;;;;;;;;4938889;28;20118;-82
2023/05/15 08:41:41;;;;;;;13.52;9.75;;;;;;;;;;4970398;28;20251;-83
2023/05/15 08:44:09;;;;;;;19.42;10.35;;;;;;;;;;4954537;28;20137;-84
2023/05/15 08:46:36;;;;;;;14.23;10.43;;;;;;;;;;4956147;28;20063;-83
2023/05/15 08:49:05;;;;;;;15.75;10.38;;;;;;;;;;4944980;28;20039;-83
2023/05/15 08:51:33;;;;;;;16.55;11.23;;;;;;;;;;4953212;28;20039;-83
2023/05/15 08:53:59;;;;;;;15.85;11.02;;;;;;;;;;4974003;28;20047;-83
2023/05/15 08:56:26;;;;;;;14.95;10.50;;;;;;;;;;4954542;28;20066;-84
2023/05/15 08:58:52;;;;;;;12.93;9.10;;;;;;;;;;4953563;28;20126;-84
2023/05/15 09:01:19;;;;;;;12.45;8.98;;;;;;;;;;4942079;28;20050;-85
2023/05/15 09:03:46;;;;;;;11.75;9.18;;;;;;;;;;4953712;28;20130;-84
2023/05/15 09:06:12;;;;;;;15.15;9.27;;;;;;;;;;4964038;28;20642;-83
2023/05/15 09:08:39;;;;;;;12.50;8.52;;;;;;;;;;4945980;28;20461;-82
2023/05/15 09:11:06;;;;;;;11.93;8.02;;;;;;;;;;4932871;28;20055;-82
2023/05/15 09:13:33;;;;;;;11.70;7.80;;;;;;;;;;4921432;28;20720;-83
2023/05/15 09:15:59;;;;;;;12.07;7.80;;;;;;;;;;4952829;28;20051;-82
2023/05/15 09:18:26;;;;;;;10.80;7.40;;;;;;;;;;4934917;28;20052;-82
2023/05/15 09:20:53;;;;;;;9.82;7.00;;;;;;;;;;4949724;28;20412;-84
2023/05/15 09:23:25;;;;;;;13.80;6.22;;;;;;;;;;4949344;28;20230;-84
2023/05/15 09:25:54;;;;;;;16.38;6.80;;;;;;;;;;4919370;28;20054;-85
2023/05/15 09:28:30;;;;;;;10.43;6.88;;;;;;;;;;4949160;28;20415;-84
2023/05/15 09:30:58;;;;;;;15.38;7.70;;;;;;;;;;4935802;28;20124;-81
2023/05/15 09:33:29;;;;;;;11.23;7.22;;;;;;;;;;4954532;28;20047;-83
2023/05/15 09:35:55;;;;;;;14.77;7.45;;;;;;;;;;4952551;28;20075;-84
2023/05/15 09:38:22;;;;;;;11.93;6.93;;;;;;;;;;4953645;28;20043;-83
2023/05/15 09:40:49;;;;;;;10.30;6.63;;;;;;;;;;4959770;28;20062;-83
2023/05/15 09:43:15;;;;;;;11.90;7.18;;;;;;;;;;4962426;28;20047;-81
2023/05/15 09:45:42;;;;;;;11.65;7.47;;;;;;;;;;4963028;28;20059;-82
2023/05/15 09:48:10;;;;;;;16.60;7.30;;;;;;;;;;4955914;28;20052;-84
2023/05/15 09:50:37;;;;;;;11.63;7.00;;;;;;;;;;4957776;28;20043;-81
2023/05/15 09:53:04;;;;;;;16.55;6.75;;;;;;;;;;4964304;28;20054;-82
2023/05/15 09:55:33;;;;;;;12.43;7.15;;;;;;;;;;4955362;28;20047;-80
2023/05/15 09:58:05;;;;;;;12.10;6.82;;;;;;;;;;4952985;28;20098;-80
2023/05/15 10:00:32;;;;;;;9.75;6.53;;;;;;;;;;4954989;28;20035;-82
2023/05/15 10:03:02;;;;;;;9.75;6.40;;;;;;;;;;4991391;28;20535;-81
2023/05/15 10:05:29;;;;;;;11.48;5.70;;;;;;;;;;4987252;28;20071;-80
2023/05/15 10:08:09;;;;;;;6.78;4.75;;;;;;;;;;4975198;28;20510;-83
2023/05/15 10:10:36;;;;;;;14.27;5.18;;;;;;;;;;4951898;28;20039;-83
2023/05/15 10:13:04;;;;;;;7.68;5.20;;;;;;;;;;4950160;28;20657;-80
2023/05/15 10:15:33;;;;;;;8.60;5.60;;;;;;;;;;4953895;28;20053;-81
2023/05/15 10:18:00;;;;;;;7.43;4.63;;;;;;;;;;4974475;28;20106;-83
2023/05/15 10:20:27;;;;;;;8.77;4.50;;;;;;;;;;4989801;28;20105;-82
2023/05/15 10:22:55;;;;;;;7.68;4.65;;;;;;;;;;4974610;28;20407;-82
2023/05/15 10:25:21;;;;;;;8.80;5.32;;;;;;;;;;4975173;28;20105;-82
2023/05/15 10:27:50;;;;;;;15.95;6.03;;;;;;;;;;4973544;28;20034;-83
2023/05/15 10:30:16;;;;;;;12.07;6.68;;;;;;;;;;4960581;28;20046;-83
2023/05/15 10:32:43;;;;;;;13.95;5.88;;;;;;;;;;4955473;28;20070;-81
2023/05/15 10:35:10;;;;;;;12.10;5.72;;;;;;;;;;4955034;28;20047;-80
2023/05/15 10:37:39;;;;;;;8.55;4.80;;;;;;;;;;4955982;28;20035;-80
2023/05/15 10:40:08;;;;;;;12.30;4.85;;;;;;;;;;4966451;28;20079;-81
2023/05/15 10:42:35;;;;;;;11.38;4.55;;;;;;;;;;4951618;28;20402;-81
2023/05/15 10:45:02;;;;;;;7.32;4.57;;;;;;;;;;4951711;28;20119;-81
2023/05/15 10:47:29;;;;;;;7.82;4.13;;;;;;;;;;4952550;28;20094;-81
2023/05/15 10:49:56;;;;;;;5.70;3.92;;;;;;;;;;4954568;29;20066;-80
2023/05/15 10:52:23;;;;;;;6.68;4.25;;;;;;;;;;4939103;29;20063;-83
2023/05/15 10:54:51;;;;;;;5.68;4.35;;;;;;;;;;4954464;28;20509;-81
2023/05/15 10:57:21;;;;;;;10.32;4.25;;;;;;;;;;4935625;28;20048;-81
2023/05/15 10:59:48;;;;;;;7.00;3.80;;;;;;;;;;4951589;28;20130;-84
2023/05/15 11:02:26;;;;;;;5.85;4.00;;;;;;;;;;4958610;28;20051;-82
2023/05/15 11:04:54;;;;;;;8.65;4.53;;;;;;;;;;4987306;28;20075;-82
2023/05/15 11:07:22;;;;;;;5.10;3.35;;;;;;;;;;4977647;28;20050;-80
2023/05/15 11:09:49;;;;;;;6.57;3.70;;;;;;;;;;4990198;28;20125;-81
2023/05/15 11:12:16;;;;;;;7.38;3.35;;;;;;;;;;4973856;28;20046;-82
2023/05/15 11:14:54;;;;;;;6.35;3.90;;;;;;;;;;4990551;28;20050;-82
2023/05/15 11:17:30;;;;;;;5.47;3.50;;;;;;;;;;4975849;28;20059;-81
2023/05/15 11:19:58;;;;;;;4.40;2.58;;;;;;;;;;4957223;28;20101;-79
2023/05/15 11:22:31;;;;;;;3.38;2.42;;;;;;;;;;4957523;28;20051;-83
2023/05/15 11:25:01;;;;;;;6.05;2.30;;;;;;;;;;4973064;28;20071;-81
2023/05/15 11:27:31;;;;;;;4.93;2.60;;;;;;;;;;4988033;28;20074;-79
2023/05/15 11:30:04;;;;;;;6.43;2.78;;;;;;;;;;4967677;28;20055;-81
2023/05/15 11:32:47;;;;;;;7.53;2.80;;;;;;;;;;4955463;28;20054;-85
2023/05/15 11:35:27;;;;;;;9.60;2.70;;;;;;;;;;4973340;28;20047;-82
2023/05/15 11:37:56;;;;;;;5.03;3.15;;;;;;;;;;4974454;28;20079;-80
2023/05/15 11:40:22;;;;;;;4.32;3.08;;;;;;;;;;4963655;28;20051;-78
2023/05/15 11:42:58;;;;;;;7.07;2.90;;;;;;;;;;4961957;28;20044;-80
2023/05/15 11:45:24;;;;;;;;;;;;;;;;;;4934543;28;20146;-82
2023/05/15 11:47:52;;;;;;;5.07;3.08;;;;;;;;;;4942772;28;19922;-79
2023/05/15 11:50:19;;;;;;;4.47;2.90;;;;;;;;;;4953975;28;20055;-79
2023/05/15 11:52:48;;;;;;;6.95;2.90;;;;;;;;;;4953095;28;20539;-83
2023/05/15 11:55:17;;;;;;;5.05;3.00;;;;;;;;;;4954364;28;20065;-81
2023/05/15 11:57:45;;;;;;;6.75;3.13;;;;;;;;;;4937004;28;20044;-81
2023/05/15 12:00:12;;;;;;;6.82;3.00;;;;;;;;;;4969230;28;20047;-82
2023/05/15 12:02:38;;;;;;;7.18;2.95;;;;;;;;;;4964173;28;20149;-82
2023/05/15 12:05:06;;;;;;;4.32;3.20;;;;;;;;;;4949397;28;20591;-82
2023/05/15 12:07:40;;;;;;;7.35;3.53;;;;;;;;;;4922095;28;20423;-83
2023/05/15 12:10:08;;;;;;;6.40;3.50;;;;;;;;;;4964299;28;20559;-81
2023/05/15 12:12:38;;;;;;;10.27;3.83;;;;;;;;;;4950546;28;20048;-79
2023/05/15 12:15:04;;;;;;;7.40;3.90;;;;;;;;;;4961046;28;20049;-80
2023/05/15 12:17:32;;;;;;;7.00;3.50;;;;;;;;;;4942199;28;20122;-82
2023/05/15 12:19:59;;;;;;;3.95;2.80;;;;;;;;;;4959430;28;20050;-83
2023/05/15 12:22:26;;;;;;;4.60;3.33;;;;;;;;;;4953147;28;20460;-82
2023/05/15 12:24:52;;;;;;;8.65;3.10;;;;;;;;;;4941727;28;20062;-82
2023/05/15 12:27:19;;;;;;;6.53;3.50;;;;;;;;;;4949697;28;20603;-84
2023/05/15 12:29:45;;;;;;;6.85;2.92;;;;;;;;;;4940002;28;20074;-82
2023/05/15 12:32:12;;;;;;;5.93;3.10;;;;;;;;;;4955044;28;20114;-81
2023/05/15 12:34:38;;;;;;;5.75;3.00;;;;;;;;;;4954920;28;20127;-82
2023/05/15 12:37:05;;;;;;;4.57;2.72;;;;;;;;;;4955368;28;20040;-82
2023/05/15 12:39:31;;;;;;;4.80;3.00;;;;;;;;;;4952413;28;20044;-81
2023/05/15 12:41:58;;;;;;;6.18;2.80;;;;;;;;;;4968088;28;20055;-83
2023/05/15 12:44:26;;;;;;;6.80;3.10;;;;;;;;;;4968759;28;20113;-84
2023/05/15 12:46:54;;;;;;;11.05;3.88;;;;;;;;;;4953846;28;20071;-84
2023/05/15 12:49:21;;;;;;;10.05;3.65;;;;;;;;;;4937037;28;20048;-82
2023/05/15 12:51:48;;;;;;;7.40;3.10;;;;;;;;;;4934262;29;20043;-81
2023/05/15 12:54:16;;;;;;;7.03;3.30;;;;;;;;;;4942607;28;20043;-81
2023/05/15 12:56:43;;;;;;;4.88;3.40;;;;;;;;;;4951872;28;20082;-81
2023/05/15 12:59:10;;;;;;;6.82;3.80;;;;;;;;;;4935548;28;20517;-81
2023/05/15 13:01:37;;;;;;;12.00;3.67;;;;;;;;;;4952099;28;20050;-80
2023/05/15 13:04:04;;;;;;;8.60;4.13;;;;;;;;;;4976629;28;20075;-82
2023/05/15 13:06:31;;;;;;;7.60;4.10;;;;;;;;;;4977489;28;20039;-80
2023/05/15 13:09:12;;;;;;;10.52;4.63;;;;;;;;;;4957996;28;20062;-80
2023/05/15 13:11:42;;;;;;;8.02;4.30;;;;;;;;;;4938223;28;20057;-82
2023/05/15 13:14:15;;;;;;;9.90;4.65;;;;;;;;;;4953994;28;20115;-83
2023/05/15 13:16:43;;;;;;;7.05;5.00;;;;;;;;;;4943202;28;20130;-83
2023/05/15 13:19:10;;;;;;;5.45;4.00;;;;;;;;;;4960661;28;20131;-84
2023/05/15 13:21:37;;;;;;;6.93;4.25;;;;;;;;;;4982819;28;20535;-83
2023/05/15 13:24:03;;;;;;;7.32;4.35;;;;;;;;;;4968921;28;20411;-85
2023/05/15 13:26:30;;;;;;;7.88;3.95;;;;;;;;;;4954304;28;20046;-84
2023/05/15 13:28:57;;;;;;;4.55;3.70;;;;;;;;;;4949229;28;20055;-82
2023/05/15 13:31:24;;;;;;;9.38;4.05;;;;;;;;;;4953004;28;20490;-80
2023/05/15 13:33:51;;;;;;;7.03;4.35;;;;;;;;;;4954847;28;20074;-84
2023/05/15 13:36:17;;;;;;;5.70;4.28;;;;;;;;;;4969848;28;20051;-82
2023/05/15 13:38:44;;;;;;;7.68;4.47;;;;;;;;;;4980138;28;20524;-83
2023/05/15 13:41:11;;;;;;;7.93;4.00;;;;;;;;;;4951125;28;20568;-81
2023/05/15 13:43:50;;;;;;;7.80;4.50;;;;;;;;;;4968892;28;20098;-83
2023/05/15 13:46:18;;;;;;;11.70;4.40;;;;;;;;;;4953842;28;20091;-73
2023/05/15 13:48:45;;;;;;;9.95;4.72;;;;;;;;;;4963656;28;20048;-79
2023/05/15 13:51:11;;;;;;;10.32;4.40;;;;;;;;;;4956522;28;20716;-79
2023/05/15 13:53:38;;;;;;;9.38;4.47;;;;;;;;;;4951488;28;20051;-82
2023/05/15 13:56:05;;;;;;;6.20;4.10;;;;;;;;;;4936875;28;20078;-81
2023/05/15 13:58:32;;;;;;;10.35;4.60;;;;;;;;;;4949462;28;20041;-84
2023/05/15 14:00:58;;;;;;;10.50;4.50;;;;;;;;;;4950250;28;20048;-81
2023/05/15 14:03:25;;;;;;;8.50;4.55;;;;;;;;;;4955006;28;20491;-81
2023/05/15 14:05:52;;;;;;;10.35;4.55;;;;;;;;;;4951322;28;20051;-82
2023/05/15 14:08:22;;;;;;;11.82;4.55;;;;;;;;;;4962841;28;20050;-84
2023/05/15 14:10:51;;;;;;;12.98;4.70;;;;;;;;;;4959080;28;20047;-80
2023/05/15 14:13:17;;;;;;;13.60;4.90;;;;;;;;;;4975301;28;20047;-82
2023/05/15 14:15:45;;;;;;;9.20;4.20;;;;;;;;;;4938061;28;20125;-85
2023/05/15 14:18:11;;;;;;;7.93;4.60;;;;;;;;;;4934778;28;20051;-81
2023/05/15 14:20:38;;;;;;;8.75;4.15;;;;;;;;;;4946015;28;20101;-82
2023/05/15 14:23:05;;;;;;;10.38;4.22;;;;;;;;;;4952544;28;20142;-83
2023/05/15 14:25:32;;;;;;;8.95;4.13;;;;;;;;;;4957722;28;20048;-80
2023/05/15 14:27:58;;;;;;;7.10;4.10;;;;;;;;;;4969249;28;20655;-78
2023/05/15 14:30:25;;;;;;;5.78;4.25;;;;;;;;;;4944547;28;20040;-76
2023/05/15 14:32:52;;;;;;;13.75;4.80;;;;;;;;;;4952728;28;20058;-80
2023/05/15 14:35:18;;;;;;;9.50;3.97;;;;;;;;;;4969374;28;20130;-79